createdAt,value
2023-05-19T00:00:30.965Z,6.44
2023-05-19T00:01:03.090Z,6.59
2023-05-19T00:01:37.662Z,6.70
2023-05-19T00:02:09.789Z,6.82
2023-05-19T00:02:46.562Z,7.00
2023-05-19T00:03:21.927Z,7.09
2023-05-19T00:04:04.873Z,7.12
2023-05-19T00:04:37.115Z,7.12
2023-05-19T00:05:10.463Z,7.08
2023-05-19T00:05:45.806Z,6.94
2023-05-19T00:06:19.362Z,7.01
2023-05-19T00:06:51.721Z,7.02
2023-05-19T00:07:26.031Z,7.01
2023-05-19T00:08:00.650Z,7.08
2023-05-19T00:08:42.032Z,7.00
2023-05-19T00:09:14.662Z,7.01
2023-05-19T00:09:47.871Z,7.01
2023-05-19T00:10:20.009Z,7.16
2023-05-19T00:10:52.103Z,7.15
2023-05-19T00:11:24.632Z,7.16
2023-05-19T00:12:01.156Z,7.12
2023-05-19T00:12:35.027Z,6.92
2023-05-19T00:13:07.046Z,6.73
2023-05-19T00:13:38.736Z,6.71
2023-05-19T00:14:10.740Z,6.72
2023-05-19T00:14:42.518Z,6.59
2023-05-19T00:15:14.713Z,6.61
2023-05-19T00:15:46.867Z,6.61
2023-05-19T00:16:18.839Z,6.48
2023-05-19T00:16:50.852Z,6.48
2023-05-19T00:17:22.666Z,6.64
2023-05-19T00:17:55.549Z,6.77
2023-05-19T00:18:29.759Z,6.83
2023-05-19T00:19:07.062Z,6.64
2023-05-19T00:19:39.520Z,6.56
2023-05-19T00:20:12.118Z,6.66
2023-05-19T00:20:44.038Z,6.54
2023-05-19T00:21:16.228Z,6.44
2023-05-19T00:21:47.973Z,6.40
2023-05-19T00:22:19.725Z,6.44
2023-05-19T00:22:51.405Z,6.47
2023-05-19T00:23:23.042Z,6.41
2023-05-19T00:23:55.085Z,6.39
2023-05-19T00:24:26.742Z,6.57
2023-05-19T00:24:58.315Z,6.45
2023-05-19T00:25:29.885Z,6.44
2023-05-19T00:26:01.477Z,6.62
2023-05-19T00:26:33.353Z,6.73
2023-05-19T00:27:11.832Z,6.73
2023-05-19T00:27:43.834Z,6.85
2023-05-19T00:28:15.582Z,6.82
2023-05-19T00:28:47.174Z,6.86
2023-05-19T00:29:19.188Z,6.89
2023-05-19T00:29:51.242Z,6.89
2023-05-19T00:30:23.022Z,6.86
2023-05-19T00:30:54.894Z,6.85
2023-05-19T00:31:26.683Z,6.85
2023-05-19T00:31:58.365Z,6.87
2023-05-19T00:32:30.080Z,6.92
2023-05-19T00:33:01.774Z,6.95
2023-05-19T00:33:34.200Z,6.88
2023-05-19T00:34:06.659Z,6.84
2023-05-19T00:34:38.413Z,6.86
2023-05-19T00:35:10.238Z,6.95
2023-05-19T00:35:42.013Z,6.94
2023-05-19T00:36:13.812Z,6.83
2023-05-19T00:36:45.498Z,6.77
2023-05-19T00:37:18.905Z,6.64
2023-05-19T00:37:50.612Z,6.73
2023-05-19T00:38:22.419Z,6.78
2023-05-19T00:38:54.289Z,6.86
2023-05-19T00:39:25.886Z,6.79
2023-05-19T00:40:05.205Z,6.93
2023-05-19T00:40:36.878Z,6.65
2023-05-19T00:41:08.589Z,6.63
2023-05-19T00:41:40.404Z,6.51
2023-05-19T00:42:12.052Z,6.57
2023-05-19T00:42:43.605Z,6.70
2023-05-19T00:43:16.159Z,6.74
2023-05-19T00:43:47.861Z,6.64
2023-05-19T00:44:19.501Z,6.59
2023-05-19T00:44:51.193Z,6.63
2023-05-19T00:45:22.978Z,6.51
2023-05-19T00:45:57.969Z,6.63
2023-05-19T00:46:30.757Z,6.66
2023-05-19T00:47:02.688Z,6.53
2023-05-19T00:47:34.754Z,6.46
2023-05-19T00:48:06.486Z,6.33
2023-05-19T00:48:38.169Z,6.36
2023-05-19T00:49:11.976Z,6.55
2023-05-19T00:49:45.561Z,6.64
2023-05-19T00:50:17.173Z,6.75
2023-05-19T00:50:50.555Z,6.58
2023-05-19T00:51:23.009Z,6.55
2023-05-19T00:51:55.768Z,6.41
2023-05-19T00:52:27.651Z,6.34
2023-05-19T00:52:59.436Z,6.27
2023-05-19T00:53:32.811Z,6.21
2023-05-19T00:54:06.232Z,6.18
2023-05-19T00:54:38.004Z,6.12
2023-05-19T00:55:13.897Z,6.23
2023-05-19T00:55:47.523Z,6.44
2023-05-19T00:56:19.162Z,6.51
2023-05-19T00:56:50.845Z,6.65
2023-05-19T00:57:30.970Z,6.67
2023-05-19T00:58:04.793Z,6.74
2023-05-19T00:58:36.946Z,6.68
2023-05-19T00:59:08.662Z,6.67
2023-05-19T00:59:41.094Z,6.53
2023-05-19T01:00:13.789Z,6.42
2023-05-19T01:00:45.886Z,6.42
2023-05-19T01:01:17.798Z,6.51
2023-05-19T01:01:49.852Z,6.31
2023-05-19T01:02:22.245Z,6.29
2023-05-19T01:02:54.304Z,6.32
2023-05-19T01:03:26.132Z,6.35
2023-05-19T01:03:59.068Z,6.39
2023-05-19T01:04:34.965Z,6.33
2023-05-19T01:05:07.042Z,6.20
2023-05-19T01:05:42.342Z,6.25
2023-05-19T01:06:15.069Z,6.22
2023-05-19T01:06:48.632Z,6.36
2023-05-19T01:07:21.203Z,6.29
2023-05-19T01:07:55.512Z,6.48
2023-05-19T01:08:28.370Z,6.48
2023-05-19T01:09:00.069Z,6.49
2023-05-19T01:09:32.292Z,6.52
2023-05-19T01:10:06.910Z,6.52
2023-05-19T01:10:38.614Z,6.57
2023-05-19T01:11:10.806Z,6.55
2023-05-19T01:11:42.644Z,6.51
2023-05-19T01:12:14.914Z,6.51
2023-05-19T01:12:47.221Z,6.53
2023-05-19T01:13:18.941Z,6.50
2023-05-19T01:13:50.700Z,6.48
2023-05-19T01:14:22.740Z,6.44
2023-05-19T01:14:54.410Z,6.46
2023-05-19T01:15:27.207Z,6.49
2023-05-19T01:16:06.984Z,6.51
2023-05-19T01:16:43.855Z,6.40
2023-05-19T01:17:34.998Z,6.42
2023-05-19T01:18:14.970Z,6.39
2023-05-19T01:19:10.935Z,6.45
2023-05-19T01:19:56.302Z,6.48
2023-05-19T01:20:35.085Z,6.49
2023-05-19T01:21:23.618Z,6.46
2023-05-19T01:22:16.574Z,6.42
2023-05-19T01:23:14.989Z,6.41
2023-05-19T01:23:54.171Z,6.42
2023-05-19T01:24:39.880Z,6.33
2023-05-19T01:25:39.248Z,6.31
2023-05-19T01:26:46.401Z,6.28
2023-05-19T01:27:49.956Z,6.25
2023-05-19T01:28:57.068Z,6.25
2023-05-19T01:29:56.062Z,6.25
2023-05-19T01:30:45.815Z,6.17
2023-05-19T01:31:18.544Z,6.16
2023-05-19T01:31:54.709Z,6.15
2023-05-19T01:32:27.159Z,6.09
2023-05-19T01:33:07.293Z,6.14
2023-05-19T01:33:40.504Z,6.17
2023-05-19T01:34:13.329Z,6.05
2023-05-19T01:34:46.486Z,6.07
2023-05-19T01:35:18.444Z,6.03
2023-05-19T01:35:51.294Z,6.00
2023-05-19T01:36:23.580Z,5.91
2023-05-19T01:36:56.071Z,6.00
2023-05-19T01:37:28.646Z,5.98
2023-05-19T01:38:01.352Z,5.98
2023-05-19T01:38:38.357Z,5.98
2023-05-19T01:39:09.947Z,5.94
2023-05-19T01:39:42.637Z,5.89
2023-05-19T01:40:14.510Z,5.94
2023-05-19T01:40:47.372Z,5.84
2023-05-19T01:41:21.827Z,5.93
2023-05-19T01:41:54.070Z,5.96
2023-05-19T01:42:26.532Z,5.96
2023-05-19T01:42:59.647Z,5.96
2023-05-19T01:43:31.716Z,5.95
2023-05-19T01:44:03.490Z,5.91
2023-05-19T01:44:35.505Z,5.87
2023-05-19T01:45:10.862Z,5.92
2023-05-19T01:45:42.798Z,5.96
2023-05-19T01:46:14.966Z,5.82
2023-05-19T01:46:47.359Z,5.85
2023-05-19T01:47:19.260Z,5.84
2023-05-19T01:47:56.771Z,5.87
2023-05-19T01:48:29.917Z,5.86
2023-05-19T01:49:02.962Z,5.87
2023-05-19T01:49:35.031Z,5.89
2023-05-19T01:50:07.412Z,5.82
2023-05-19T01:50:39.726Z,5.88
2023-05-19T01:51:14.895Z,5.88
2023-05-19T01:51:49.512Z,5.63
2023-05-19T01:52:21.170Z,5.71
2023-05-19T01:52:54.391Z,5.75
2023-05-19T01:53:26.488Z,5.67
2023-05-19T01:53:58.177Z,5.65
2023-05-19T01:54:29.799Z,5.56
2023-05-19T01:55:01.549Z,5.52
2023-05-19T01:55:34.633Z,5.48
2023-05-19T01:56:07.351Z,5.55
2023-05-19T01:57:00.757Z,5.59
2023-05-19T01:57:51.670Z,5.71
2023-05-19T01:58:42.045Z,5.74
2023-05-19T01:59:27.299Z,5.76
2023-05-19T02:00:09.419Z,5.71
2023-05-19T02:01:03.929Z,5.71
2023-05-19T02:01:50.620Z,5.80
2023-05-19T02:02:30.322Z,5.79
2023-05-19T02:03:08.253Z,5.83
2023-05-19T02:03:50.092Z,5.71
2023-05-19T02:04:39.873Z,5.67
2023-05-19T02:05:31.440Z,5.66
2023-05-19T02:06:40.776Z,5.50
2023-05-19T02:07:23.516Z,5.40
2023-05-19T02:08:22.754Z,5.35
2023-05-19T02:09:00.781Z,5.27
2023-05-19T02:09:41.632Z,5.24
2023-05-19T02:10:34.583Z,5.28
2023-05-19T02:11:40.627Z,5.25
2023-05-19T02:12:25.459Z,5.18
2023-05-19T02:12:59.384Z,5.14
2023-05-19T02:13:34.333Z,5.15
2023-05-19T02:14:16.068Z,5.12
2023-05-19T02:15:05.205Z,5.20
2023-05-19T02:15:44.862Z,5.27
2023-05-19T02:16:17.595Z,5.20
2023-05-19T02:16:49.454Z,5.19
2023-05-19T02:17:22.821Z,5.20
2023-05-19T02:17:55.805Z,5.19
2023-05-19T02:18:30.052Z,5.16
2023-05-19T02:19:01.785Z,5.16
2023-05-19T02:19:41.036Z,5.16
2023-05-19T02:20:13.205Z,5.16
2023-05-19T02:20:44.808Z,5.16
2023-05-19T02:21:16.645Z,5.17
2023-05-19T02:21:49.960Z,5.11
2023-05-19T02:22:21.589Z,5.08
2023-05-19T02:22:53.207Z,5.08
2023-05-19T02:23:25.098Z,5.14
2023-05-19T02:23:56.699Z,5.03
2023-05-19T02:24:28.270Z,5.03
2023-05-19T02:25:00.411Z,5.05
2023-05-19T02:25:32.215Z,5.03
2023-05-19T02:26:04.788Z,5.06
2023-05-19T02:26:38.246Z,5.11
2023-05-19T02:27:09.834Z,5.03
2023-05-19T02:27:41.780Z,5.03
2023-05-19T02:28:13.377Z,5.04
2023-05-19T02:28:44.998Z,5.02
2023-05-19T02:29:16.707Z,5.04
2023-05-19T02:29:48.279Z,5.05
2023-05-19T02:30:19.969Z,5.02
2023-05-19T02:30:51.560Z,5.02
2023-05-19T02:31:23.261Z,5.01
2023-05-19T02:31:55.059Z,4.98
2023-05-19T02:32:26.831Z,4.92
2023-05-19T02:32:58.711Z,4.95
2023-05-19T02:33:30.438Z,5.00
2023-05-19T02:34:02.063Z,5.00
2023-05-19T02:34:34.831Z,4.96
2023-05-19T02:35:09.397Z,4.93
2023-05-19T02:35:41.265Z,4.98
2023-05-19T02:36:14.539Z,5.00
2023-05-19T02:36:49.915Z,4.92
2023-05-19T02:37:23.870Z,4.96
2023-05-19T02:37:55.474Z,5.07
2023-05-19T02:38:27.458Z,5.00
2023-05-19T02:39:00.926Z,5.03
2023-05-19T02:39:35.201Z,5.09
2023-05-19T02:40:07.652Z,5.12
2023-05-19T02:40:39.301Z,5.21
2023-05-19T02:41:11.437Z,5.29
2023-05-19T02:41:45.233Z,5.28
2023-05-19T02:42:18.461Z,5.36
2023-05-19T02:42:50.361Z,5.36
2023-05-19T02:43:22.105Z,5.45
2023-05-19T02:43:53.940Z,5.43
2023-05-19T02:44:25.600Z,5.44
2023-05-19T02:44:57.210Z,5.43
2023-05-19T02:45:29.291Z,5.52
2023-05-19T02:46:02.392Z,5.47
2023-05-19T02:46:34.645Z,5.47
2023-05-19T02:47:06.375Z,5.48
2023-05-19T02:47:38.423Z,5.48
2023-05-19T02:48:11.311Z,5.55
2023-05-19T02:48:42.956Z,5.58
2023-05-19T02:49:14.726Z,5.52
2023-05-19T02:49:46.402Z,5.56
2023-05-19T02:50:18.250Z,5.57
2023-05-19T02:50:49.859Z,5.49
2023-05-19T02:51:21.583Z,5.48
2023-05-19T02:51:53.595Z,5.48
2023-05-19T02:52:25.188Z,5.54
2023-05-19T02:52:56.857Z,5.56
2023-05-19T02:53:34.672Z,5.45
2023-05-19T02:54:06.414Z,5.41
2023-05-19T02:54:38.022Z,5.43
2023-05-19T02:55:09.974Z,5.48
2023-05-19T02:55:42.371Z,5.46
2023-05-19T02:56:14.134Z,5.51
2023-05-19T02:56:47.776Z,5.46
2023-05-19T02:57:19.485Z,5.53
2023-05-19T02:57:51.192Z,5.53
2023-05-19T02:58:23.018Z,5.41
2023-05-19T02:58:54.686Z,5.44
2023-05-19T02:59:26.366Z,5.50
2023-05-19T02:59:58.023Z,5.55
2023-05-19T03:00:29.692Z,5.43
2023-05-19T03:01:01.402Z,5.44
2023-05-19T03:01:33.790Z,5.51
2023-05-19T03:02:05.661Z,5.35
2023-05-19T03:02:37.687Z,5.44
2023-05-19T03:03:10.655Z,5.45
2023-05-19T03:03:44.547Z,5.47
2023-05-19T03:04:16.217Z,5.50
2023-05-19T03:04:47.886Z,5.43
2023-05-19T03:05:20.214Z,5.39
2023-05-19T03:05:51.967Z,5.41
2023-05-19T03:06:25.446Z,5.44
2023-05-19T03:06:57.843Z,5.40
2023-05-19T03:07:30.400Z,5.37
2023-05-19T03:08:02.083Z,5.47
2023-05-19T03:08:33.747Z,5.35
2023-05-19T03:09:05.975Z,5.41
2023-05-19T03:09:37.938Z,5.45
2023-05-19T03:10:09.750Z,5.52
2023-05-19T03:10:41.510Z,5.53
2023-05-19T03:11:16.972Z,5.45
2023-05-19T03:11:48.656Z,5.42
2023-05-19T03:12:20.805Z,5.37
2023-05-19T03:12:52.489Z,5.44
2023-05-19T03:13:24.075Z,5.43
2023-05-19T03:13:55.961Z,5.48
2023-05-19T03:14:28.352Z,5.45
2023-05-19T03:15:00.517Z,5.41
2023-05-19T03:15:32.499Z,5.41
2023-05-19T03:16:04.263Z,5.42
2023-05-19T03:16:36.364Z,5.48
2023-05-19T03:17:08.452Z,5.50
2023-05-19T03:17:40.848Z,5.51
2023-05-19T03:18:12.764Z,5.60
2023-05-19T03:18:44.615Z,5.57
2023-05-19T03:19:16.779Z,5.57
2023-05-19T03:19:48.475Z,5.47
2023-05-19T03:20:20.612Z,5.48
2023-05-19T03:20:54.071Z,5.52
2023-05-19T03:21:26.530Z,5.53
2023-05-19T03:21:58.292Z,5.53
2023-05-19T03:22:30.008Z,5.47
2023-05-19T03:23:01.629Z,5.48
2023-05-19T03:23:33.679Z,5.52
2023-05-19T03:24:05.588Z,5.49
2023-05-19T03:24:38.144Z,5.49
2023-05-19T03:25:10.297Z,5.47
2023-05-19T03:25:42.021Z,5.43
2023-05-19T03:26:13.736Z,5.44
2023-05-19T03:26:45.955Z,5.56
2023-05-19T03:27:17.534Z,5.43
2023-05-19T03:27:49.209Z,5.31
2023-05-19T03:28:20.867Z,5.31
2023-05-19T03:28:52.705Z,5.32
2023-05-19T03:29:24.692Z,5.25
2023-05-19T03:29:56.649Z,5.26
2023-05-19T03:30:28.671Z,5.26
2023-05-19T03:31:11.422Z,5.20
2023-05-19T03:31:43.770Z,5.37
2023-05-19T03:32:15.878Z,5.34
2023-05-19T03:32:47.859Z,5.38
2023-05-19T03:33:20.051Z,5.40
2023-05-19T03:33:52.140Z,5.57
2023-05-19T03:34:24.367Z,5.34
2023-05-19T03:34:56.161Z,5.38
2023-05-19T03:35:28.927Z,5.24
2023-05-19T03:36:04.137Z,5.08
2023-05-19T03:36:40.192Z,5.14
2023-05-19T03:37:17.232Z,5.21
2023-05-19T03:37:48.972Z,5.15
2023-05-19T03:38:23.725Z,5.14
2023-05-19T03:39:00.946Z,5.13
2023-05-19T03:39:33.025Z,5.12
2023-05-19T03:40:05.842Z,5.16
2023-05-19T03:40:39.038Z,5.13
2023-05-19T03:41:14.775Z,5.24
2023-05-19T03:41:46.571Z,5.27
2023-05-19T03:42:18.301Z,5.24
2023-05-19T03:42:49.901Z,5.19
2023-05-19T03:43:21.633Z,5.15
2023-05-19T03:43:59.005Z,5.14
2023-05-19T03:44:30.769Z,5.14
2023-05-19T03:45:12.092Z,5.17
2023-05-19T03:45:44.533Z,5.20
2023-05-19T03:46:48.774Z,5.22
2023-05-19T03:47:38.977Z,5.32
2023-05-19T03:48:26.962Z,5.37
2023-05-19T03:49:28.103Z,5.12
2023-05-19T03:50:02.588Z,5.14
2023-05-19T03:50:52.972Z,5.10
2023-05-19T03:51:30.405Z,5.26
2023-05-19T03:52:09.916Z,5.34
2023-05-19T03:52:53.765Z,5.52
2023-05-19T03:53:33.055Z,5.63
2023-05-19T03:54:04.836Z,5.72
2023-05-19T03:54:36.674Z,5.77
2023-05-19T03:55:09.939Z,5.83
2023-05-19T03:55:41.658Z,5.78
2023-05-19T03:56:13.995Z,5.86
2023-05-19T03:56:46.054Z,5.91
2023-05-19T03:57:17.733Z,5.93
2023-05-19T03:57:49.407Z,5.94
2023-05-19T03:58:21.043Z,5.78
2023-05-19T03:58:54.778Z,5.67
2023-05-19T03:59:26.818Z,5.57
2023-05-19T03:59:58.408Z,5.45
2023-05-19T04:00:31.716Z,5.56
2023-05-19T04:01:03.729Z,5.51
2023-05-19T04:01:36.558Z,5.46
2023-05-19T04:02:08.541Z,5.50
2023-05-19T04:02:41.090Z,5.50
2023-05-19T04:03:12.948Z,5.43
2023-05-19T04:03:45.739Z,5.40
2023-05-19T04:04:17.397Z,5.42
2023-05-19T04:04:51.222Z,5.45
2023-05-19T04:05:23.058Z,5.58
2023-05-19T04:05:54.829Z,5.74
2023-05-19T04:06:26.441Z,5.64
2023-05-19T04:06:58.923Z,5.67
2023-05-19T04:07:31.215Z,5.79
2023-05-19T04:08:02.892Z,5.88
2023-05-19T04:08:34.500Z,5.89
2023-05-19T04:09:14.102Z,6.02
2023-05-19T04:09:46.197Z,6.10
2023-05-19T04:10:17.818Z,6.09
2023-05-19T04:10:49.407Z,5.97
2023-05-19T04:11:21.496Z,5.83
2023-05-19T04:11:53.125Z,5.86
2023-05-19T04:12:24.787Z,5.98
2023-05-19T04:12:57.737Z,5.99
2023-05-19T04:13:33.454Z,6.09
2023-05-19T04:14:05.461Z,6.14
2023-05-19T04:14:37.074Z,6.18
2023-05-19T04:15:11.440Z,6.24
2023-05-19T04:15:43.166Z,6.22
2023-05-19T04:16:15.010Z,6.26
2023-05-19T04:16:46.644Z,6.34
2023-05-19T04:17:18.262Z,6.42
2023-05-19T04:17:49.938Z,6.41
2023-05-19T04:18:23.292Z,6.42
2023-05-19T04:18:54.900Z,6.44
2023-05-19T04:19:26.623Z,6.57
2023-05-19T04:20:00.177Z,6.53
2023-05-19T04:20:33.489Z,6.58
2023-05-19T04:21:05.785Z,6.57
2023-05-19T04:21:37.345Z,6.68
2023-05-19T04:22:09.594Z,6.76
2023-05-19T04:22:41.511Z,6.73
2023-05-19T04:23:13.149Z,6.75
2023-05-19T04:23:44.758Z,6.78
2023-05-19T04:24:16.344Z,6.80
2023-05-19T04:24:48.932Z,6.74
2023-05-19T04:25:20.536Z,6.85
2023-05-19T04:25:52.265Z,6.88
2023-05-19T04:26:25.034Z,6.85
2023-05-19T04:26:56.759Z,6.87
2023-05-19T04:27:30.056Z,6.86
2023-05-19T04:28:03.254Z,6.87
2023-05-19T04:28:39.018Z,6.90
2023-05-19T04:29:10.810Z,6.95
2023-05-19T04:29:43.139Z,6.99
2023-05-19T04:30:22.065Z,7.01
2023-05-19T04:30:53.877Z,7.07
2023-05-19T04:31:27.475Z,7.12
2023-05-19T04:32:00.946Z,7.15
2023-05-19T04:32:33.064Z,7.11
2023-05-19T04:33:05.396Z,7.12
2023-05-19T04:33:37.579Z,7.18
2023-05-19T04:34:10.036Z,7.10
2023-05-19T04:34:45.333Z,7.15
2023-05-19T04:35:22.514Z,7.12
2023-05-19T04:35:54.912Z,7.17
2023-05-19T04:36:26.621Z,7.16
2023-05-19T04:36:59.214Z,7.18
2023-05-19T04:37:31.182Z,7.20
2023-05-19T04:38:03.792Z,7.25
2023-05-19T04:38:39.891Z,7.24
2023-05-19T04:39:14.468Z,7.25
2023-05-19T04:39:49.640Z,7.36
2023-05-19T04:40:23.748Z,7.48
2023-05-19T04:40:56.899Z,7.54
2023-05-19T04:41:28.939Z,7.61
2023-05-19T04:42:02.641Z,7.55
2023-05-19T04:42:34.876Z,7.59
2023-05-19T04:43:09.461Z,7.60
2023-05-19T04:43:44.528Z,7.64
2023-05-19T04:44:18.465Z,7.67
2023-05-19T04:44:52.491Z,7.68
2023-05-19T04:45:28.380Z,7.74
2023-05-19T04:46:06.392Z,7.68
2023-05-19T04:46:38.216Z,7.68
2023-05-19T04:47:11.261Z,7.69
2023-05-19T04:47:43.310Z,7.66
2023-05-19T04:48:15.318Z,7.68
2023-05-19T04:48:47.651Z,7.68
2023-05-19T04:49:19.479Z,7.67
2023-05-19T04:49:55.517Z,7.60
2023-05-19T04:50:28.642Z,7.55
2023-05-19T04:51:01.882Z,7.64
2023-05-19T04:51:33.634Z,7.65
2023-05-19T04:52:07.783Z,7.68
2023-05-19T04:52:41.792Z,7.66
2023-05-19T04:53:13.426Z,7.75
2023-05-19T04:53:45.334Z,7.78
2023-05-19T04:54:18.665Z,7.75
2023-05-19T04:54:51.066Z,7.71
2023-05-19T04:55:23.054Z,7.77
2023-05-19T04:55:55.526Z,7.72
2023-05-19T04:56:28.902Z,7.73
2023-05-19T04:57:01.116Z,7.71
2023-05-19T04:57:34.730Z,7.71
2023-05-19T04:58:06.678Z,7.83
2023-05-19T04:58:39.703Z,7.81
2023-05-19T04:59:13.028Z,7.83
2023-05-19T04:59:44.636Z,7.83
2023-05-19T05:00:16.898Z,7.79
2023-05-19T05:00:58.680Z,7.78
2023-05-19T05:01:31.352Z,7.79
2023-05-19T05:02:04.357Z,7.79
2023-05-19T05:02:37.137Z,7.84
2023-05-19T05:03:09.043Z,7.87
2023-05-19T05:03:41.189Z,7.88
2023-05-19T05:04:12.999Z,7.96
2023-05-19T05:04:46.455Z,8.00
2023-05-19T05:05:18.095Z,8.00
2023-05-19T05:05:50.063Z,8.01
2023-05-19T05:06:25.184Z,7.97
2023-05-19T05:06:57.461Z,7.99
2023-05-19T05:07:32.239Z,7.98
2023-05-19T05:08:04.346Z,7.99
2023-05-19T05:08:41.453Z,8.05
2023-05-19T05:09:17.415Z,8.10
2023-05-19T05:09:49.547Z,8.09
2023-05-19T05:10:21.969Z,8.15
2023-05-19T05:10:54.158Z,8.23
2023-05-19T05:11:26.807Z,8.29
2023-05-19T05:11:59.179Z,8.34
2023-05-19T05:12:31.294Z,8.36
2023-05-19T05:13:03.345Z,8.39
2023-05-19T05:13:35.536Z,8.43
2023-05-19T05:14:07.492Z,8.47
2023-05-19T05:14:40.303Z,8.56
2023-05-19T05:15:13.366Z,8.62
2023-05-19T05:15:45.470Z,8.64
2023-05-19T05:16:18.176Z,8.63
2023-05-19T05:16:50.203Z,8.71
2023-05-19T05:17:27.176Z,8.75
2023-05-19T05:17:59.468Z,8.79
2023-05-19T05:18:31.442Z,8.82
2023-05-19T05:19:03.653Z,8.86
2023-05-19T05:19:35.954Z,8.89
2023-05-19T05:20:08.228Z,8.92
2023-05-19T05:20:40.957Z,8.96
2023-05-19T05:21:12.950Z,8.99
2023-05-19T05:21:45.869Z,9.01
2023-05-19T05:22:18.890Z,8.99
2023-05-19T05:22:50.961Z,8.90
2023-05-19T05:23:23.253Z,8.98
2023-05-19T05:23:55.947Z,8.97
2023-05-19T05:24:30.544Z,8.99
2023-05-19T05:25:05.101Z,9.06
2023-05-19T05:25:37.127Z,9.11
2023-05-19T05:26:14.642Z,9.19
2023-05-19T05:26:46.576Z,9.23
2023-05-19T05:27:18.555Z,9.24
2023-05-19T05:27:50.154Z,9.26
2023-05-19T05:28:21.847Z,9.28
2023-05-19T05:28:53.472Z,9.44
2023-05-19T05:29:25.934Z,9.51
2023-05-19T05:29:59.219Z,9.55
2023-05-19T05:30:33.156Z,9.51
2023-05-19T05:31:04.857Z,9.57
2023-05-19T05:31:37.068Z,9.63
2023-05-19T05:32:09.118Z,9.74
2023-05-19T05:32:41.279Z,9.81
2023-05-19T05:33:22.318Z,9.80
2023-05-19T05:33:54.108Z,9.81
2023-05-19T05:34:29.206Z,9.86
2023-05-19T05:35:00.820Z,9.95
2023-05-19T05:35:32.749Z,10.15
2023-05-19T05:36:05.224Z,10.13
2023-05-19T05:36:36.941Z,10.01
2023-05-19T05:37:08.625Z,10.14
2023-05-19T05:37:40.967Z,10.43
2023-05-19T05:38:12.679Z,10.66
2023-05-19T05:38:47.063Z,10.60
2023-05-19T05:39:18.766Z,10.75
2023-05-19T05:39:50.722Z,10.74
2023-05-19T05:40:22.345Z,10.82
2023-05-19T05:40:54.013Z,10.99
2023-05-19T05:41:27.342Z,11.08
2023-05-19T05:41:59.044Z,11.27
2023-05-19T05:42:30.880Z,11.51
2023-05-19T05:43:02.496Z,11.37
2023-05-19T05:43:37.277Z,11.69
2023-05-19T05:44:10.532Z,11.80
2023-05-19T05:44:44.220Z,11.83
2023-05-19T05:45:15.970Z,12.08
2023-05-19T05:45:47.814Z,12.32
2023-05-19T05:46:20.138Z,12.39
2023-05-19T05:46:52.353Z,12.28
2023-05-19T05:47:24.318Z,12.35
2023-05-19T05:47:56.981Z,12.49
2023-05-19T05:48:28.956Z,12.47
2023-05-19T05:49:01.294Z,12.71
2023-05-19T05:49:36.589Z,12.89
2023-05-19T05:50:10.792Z,13.09
2023-05-19T05:50:45.521Z,13.26
2023-05-19T05:51:23.516Z,13.54
2023-05-19T05:52:05.729Z,13.48
2023-05-19T05:52:46.306Z,13.56
2023-05-19T05:53:30.001Z,13.51
2023-05-19T05:54:06.376Z,13.51
2023-05-19T05:54:42.658Z,13.79
2023-05-19T05:55:16.165Z,13.51
2023-05-19T05:55:48.440Z,13.39
2023-05-19T05:56:22.177Z,13.22
2023-05-19T05:56:57.402Z,13.18
2023-05-19T05:57:30.799Z,13.18
2023-05-19T05:58:03.619Z,13.05
2023-05-19T05:58:37.419Z,12.95
2023-05-19T05:59:09.312Z,12.80
2023-05-19T05:59:40.898Z,12.61
2023-05-19T06:00:15.951Z,12.32
2023-05-19T06:00:49.362Z,12.62
2023-05-19T06:01:28.136Z,12.51
2023-05-19T06:02:04.979Z,12.77
2023-05-19T06:02:37.855Z,12.80
2023-05-19T06:03:11.107Z,12.90
2023-05-19T06:03:52.488Z,13.11
2023-05-19T06:04:31.079Z,12.82
2023-05-19T06:05:02.970Z,12.99
2023-05-19T06:05:49.989Z,13.40
2023-05-19T06:06:24.488Z,13.77
2023-05-19T06:07:01.184Z,13.73
2023-05-19T06:07:37.669Z,13.76
2023-05-19T06:08:09.535Z,14.14
2023-05-19T06:08:41.222Z,14.30
2023-05-19T06:09:13.137Z,14.19
2023-05-19T06:09:44.735Z,14.21
2023-05-19T06:10:16.865Z,14.33
2023-05-19T06:10:48.582Z,14.53
2023-05-19T06:11:21.453Z,14.92
2023-05-19T06:11:53.257Z,14.90
2023-05-19T06:12:26.655Z,14.87
2023-05-19T06:12:58.364Z,15.14
2023-05-19T06:13:31.179Z,14.98
2023-05-19T06:14:02.789Z,15.32
2023-05-19T06:15:08.107Z,15.59
2023-05-19T06:16:02.034Z,15.49
2023-05-19T06:16:43.438Z,15.65
2023-05-19T06:17:15.066Z,15.77
2023-05-19T06:17:46.793Z,15.42
2023-05-19T06:18:18.806Z,15.64
2023-05-19T06:18:52.871Z,15.82
2023-05-19T06:19:26.024Z,16.19
2023-05-19T06:19:57.704Z,16.23
2023-05-19T06:20:31.292Z,16.10
2023-05-19T06:21:03.489Z,16.29
2023-05-19T06:21:35.588Z,16.50
2023-05-19T06:22:07.199Z,16.19
2023-05-19T06:22:39.000Z,16.37
2023-05-19T06:23:11.086Z,16.43
2023-05-19T06:23:42.704Z,16.35
2023-05-19T06:24:15.918Z,16.22
2023-05-19T06:24:47.526Z,15.91
2023-05-19T06:25:20.562Z,16.18
2023-05-19T06:25:52.487Z,16.22
2023-05-19T06:26:24.292Z,16.10
2023-05-19T06:26:55.904Z,16.26
2023-05-19T06:27:27.558Z,16.80
2023-05-19T06:27:59.419Z,17.07
2023-05-19T06:28:33.096Z,17.20
2023-05-19T06:29:04.877Z,17.10
2023-05-19T06:29:36.561Z,17.03
2023-05-19T06:30:11.449Z,17.16
2023-05-19T06:30:56.581Z,17.41
2023-05-19T06:31:43.830Z,17.05
2023-05-19T06:32:18.327Z,17.25
2023-05-19T06:32:50.886Z,17.28
2023-05-19T06:33:22.655Z,16.96
2023-05-19T06:33:54.326Z,16.96
2023-05-19T06:34:26.924Z,16.98
2023-05-19T06:34:58.887Z,17.06
2023-05-19T06:35:31.429Z,16.69
2023-05-19T06:36:06.160Z,16.63
2023-05-19T06:36:37.805Z,16.81
2023-05-19T06:37:09.683Z,16.64
2023-05-19T06:37:42.597Z,16.58
2023-05-19T06:38:15.031Z,16.54
2023-05-19T06:38:46.909Z,16.79
2023-05-19T06:39:18.557Z,16.76
2023-05-19T06:39:52.649Z,16.78
2023-05-19T06:40:25.983Z,16.63
2023-05-19T06:40:58.751Z,16.50
2023-05-19T06:41:30.621Z,16.30
2023-05-19T06:42:04.454Z,16.23
2023-05-19T06:43:05.005Z,16.14
2023-05-19T06:44:03.861Z,16.12
2023-05-19T06:44:38.091Z,16.02
2023-05-19T06:45:14.487Z,16.00
2023-05-19T06:45:46.146Z,16.05
2023-05-19T06:46:17.981Z,16.15
2023-05-19T06:46:49.868Z,16.37
2023-05-19T06:47:21.700Z,16.27
2023-05-19T06:47:54.459Z,16.62
2023-05-19T06:48:27.259Z,16.62
2023-05-19T06:49:01.157Z,16.82
2023-05-19T06:49:36.503Z,16.39
2023-05-19T06:50:10.433Z,16.46
2023-05-19T06:50:44.404Z,16.66
2023-05-19T06:51:21.685Z,17.14
2023-05-19T06:51:56.682Z,17.09
2023-05-19T06:52:28.400Z,17.21
2023-05-19T06:53:00.372Z,17.40
2023-05-19T06:53:33.691Z,17.19
2023-05-19T06:54:52.720Z,17.76
2023-05-19T06:55:26.735Z,17.65
2023-05-19T06:56:00.751Z,17.93
2023-05-19T06:56:36.756Z,17.64
2023-05-19T06:57:08.425Z,17.70
2023-05-19T06:57:40.091Z,17.84
2023-05-19T06:58:18.965Z,18.39
2023-05-19T06:58:50.649Z,17.98
2023-05-19T06:59:23.767Z,18.28
2023-05-19T06:59:56.013Z,17.91
2023-05-19T07:00:29.628Z,18.09
2023-05-19T07:01:01.937Z,18.19
2023-05-19T07:01:39.491Z,17.95
2023-05-19T07:02:17.326Z,17.79
2023-05-19T07:02:50.315Z,17.38
2023-05-19T07:03:22.221Z,17.49
2023-05-19T07:03:54.024Z,17.58
2023-05-19T07:04:26.482Z,16.70
2023-05-19T07:04:58.118Z,16.48
2023-05-19T07:05:29.972Z,16.37
2023-05-19T07:06:08.116Z,16.36
2023-05-19T07:06:41.024Z,16.43
2023-05-19T07:07:14.120Z,16.39
2023-05-19T07:07:46.510Z,16.14
2023-05-19T07:08:22.056Z,16.14
2023-05-19T07:08:54.033Z,16.48
2023-05-19T07:09:26.292Z,16.68
2023-05-19T07:09:57.958Z,16.78
2023-05-19T07:10:33.866Z,16.85
2023-05-19T07:11:05.839Z,16.96
2023-05-19T07:11:37.549Z,16.79
2023-05-19T07:12:13.026Z,17.04
2023-05-19T07:12:44.686Z,17.10
2023-05-19T07:13:16.925Z,17.52
2023-05-19T07:13:48.555Z,17.59
2023-05-19T07:14:26.589Z,17.84
2023-05-19T07:14:58.241Z,17.70
2023-05-19T07:15:30.068Z,18.07
2023-05-19T07:16:01.847Z,17.68
2023-05-19T07:16:34.070Z,17.54
2023-05-19T07:17:05.882Z,17.14
2023-05-19T07:17:38.704Z,16.99
2023-05-19T07:18:10.650Z,17.24
2023-05-19T07:18:42.394Z,17.31
2023-05-19T07:19:15.637Z,17.07
2023-05-19T07:19:49.500Z,17.45
2023-05-19T07:20:21.313Z,17.29
2023-05-19T07:20:53.869Z,17.46
2023-05-19T07:21:26.245Z,17.39
2023-05-19T07:21:59.339Z,17.45
2023-05-19T07:22:31.053Z,17.50
2023-05-19T07:23:05.698Z,17.43
2023-05-19T07:23:37.454Z,17.56
2023-05-19T07:24:09.103Z,17.90
2023-05-19T07:24:40.820Z,18.06
2023-05-19T07:25:15.386Z,17.64
2023-05-19T07:25:47.189Z,17.40
2023-05-19T07:26:18.910Z,17.48
2023-05-19T07:26:50.554Z,17.52
2023-05-19T07:27:22.149Z,17.47
2023-05-19T07:27:57.438Z,17.74
2023-05-19T07:28:29.146Z,17.73
2023-05-19T07:29:00.852Z,17.81
2023-05-19T07:29:32.510Z,17.76
2023-05-19T07:30:05.717Z,17.68
2023-05-19T07:30:39.167Z,17.71
2023-05-19T07:31:13.394Z,18.10